Fremont, Minnesota
Current Conditions -  °F | °C
As of 2:14 PM on Saturday 25 Oct 2014 (Local Time) from KONA Reporting Station
Clear Clear  
Wind Chill: 63°   Ceiling: Unl
Heat Index: 63°   Visibility: 10mi
Dew Point: 32°   Wind: 13mph
Humidity: 32%   Direction: 290°WNW
Pressure: 30.01"   Gusts: 21mph
Location:  43.9439°N, 91.933°W
Report Text: KONA 251914Z AUTO 29011G18KT 10SM CLR 17/00 A3001 RMK AO2
Loading
Personal Weather Stations






























Interactive Weather Map
Tropical Storm Tracking
New forecast layout! Learn more

10-Day Weather Forecast

Advertisements
Track Severe Weather on mobile